Time;durP1;ratioP1;P1;durP2;ratioP2;P2;SDS_P1;SDS_P2;PMS_P1;PMS_P2;Temp;Humidity;BMP_temperature;BMP_pressure;BME280_temperature;BME280_humidity;BME280_pressure;Samples;Min_cycle;Max_cycle;Signal;HPM_P1;HPM_P2
2022/05/14 00:01:27;;;;;;;17.30;15.00;;;19.20;99.90;;;;;;5087651;28;20372;-83
2022/05/14 00:03:54;;;;;;;19.52;16.20;;;19.30;99.90;;;;;;5087762;28;20372;-84
2022/05/14 00:06:23;;;;;;;16.88;15.07;;;19.20;99.90;;;;;;5087812;28;20891;-82
2022/05/14 00:08:51;;;;;;;16.42;14.35;;;19.30;99.90;;;;;;5087813;28;20385;-83
2022/05/14 00:14:06;;;;;;;13.00;11.70;;;19.40;99.90;;;;;;5088307;28;20954;-83
2022/05/14 00:16:35;;;;;;;11.98;10.77;;;19.40;99.90;;;;;;5091741;28;20771;-85
2022/05/14 00:19:04;;;;;;;13.20;11.82;;;19.40;99.90;;;;;;5092033;28;20460;-80
2022/05/14 00:21:32;;;;;;;12.90;11.50;;;19.40;99.90;;;;;;5091470;28;20422;-84
2022/05/14 00:23:59;;;;;;;13.73;12.27;;;19.50;99.90;;;;;;5091308;28;20892;-84
2022/05/14 00:26:26;;;;;;;15.57;13.77;;;19.40;99.90;;;;;;5091347;28;20365;-87
2022/05/14 00:28:53;;;;;;;17.75;15.82;;;19.50;99.90;;;;;;5091401;28;20380;-83
2022/05/14 00:31:21;;;;;;;16.02;14.43;;;19.40;99.90;;;;;;5090945;28;20387;-83
2022/05/14 00:33:48;;;;;;;14.88;13.27;;;19.50;99.90;;;;;;5091384;28;20453;-83
2022/05/14 00:36:15;;;;;;;15.10;13.50;;;19.60;99.90;;;;;;5091082;28;20364;-83
2022/05/14 00:38:42;;;;;;;15.98;14.38;;;19.60;99.90;;;;;;5089870;28;20404;-85
2022/05/14 00:41:10;;;;;;;16.20;13.93;;;19.60;99.90;;;;;;5091245;28;20368;-86
2022/05/14 00:43:48;;;;;;;15.35;12.32;;;19.70;99.90;;;;;;5091697;28;20375;-89
2022/05/14 00:46:22;;;;;;;15.07;13.48;;;19.30;99.90;;;;;;5091567;28;20377;-85
2022/05/14 00:48:51;;;;;;;13.85;12.20;;;19.30;99.90;;;;;;5092145;28;20844;-85
2022/05/14 00:51:28;;;;;;;12.53;11.20;;;19.40;99.90;;;;;;5092631;28;20751;-84
2022/05/14 00:54:01;;;;;;;13.15;11.85;;;19.60;99.90;;;;;;5091606;28;20416;-84
2022/05/14 00:56:36;;;;;;;12.70;11.40;;;19.70;99.90;;;;;;5091163;28;20841;-84
2022/05/14 00:59:08;;;;;;;14.70;13.30;;;19.70;99.90;;;;;;5091209;28;20516;-84
2022/05/14 01:01:37;;;;;;;14.38;12.57;;;19.80;99.90;;;;;;5091040;28;20357;-85
2022/05/14 01:04:05;;;;;;;14.07;12.68;;;19.80;99.90;;;;;;5091081;28;20408;-84
2022/05/14 01:06:35;;;;;;;15.10;13.57;;;19.60;99.90;;;;;;5090774;28;20411;-87
2022/05/14 01:09:05;;;;;;;13.70;12.40;;;19.70;99.90;;;;;;5090743;28;20401;-86
2022/05/14 01:11:35;;;;;;;14.02;12.50;;;19.80;99.90;;;;;;5090811;28;20451;-88
2022/05/14 01:14:03;;;;;;;12.88;11.68;;;20.00;99.90;;;;;;5089165;28;20373;-83
2022/05/14 01:16:31;;;;;;;12.63;11.43;;;20.10;99.90;;;;;;5090280;28;20891;-86
2022/05/14 01:18:59;;;;;;;12.63;11.50;;;20.10;99.90;;;;;;5090160;28;20396;-85
2022/05/14 01:21:36;;;;;;;11.93;10.73;;;20.20;99.90;;;;;;5090207;28;20364;-85
2022/05/14 01:27:11;;;;;;;10.43;9.52;;;20.20;99.90;;;;;;5089913;28;20456;-83
2022/05/14 01:29:41;;;;;;;11.32;10.23;;;20.50;99.90;;;;;;5089732;28;20461;-83
2022/05/14 01:32:08;;;;;;;13.75;12.35;;;20.50;99.90;;;;;;5090655;28;20460;-84
2022/05/14 01:34:35;;;;;;;13.20;11.57;;;20.40;99.90;;;;;;5089874;28;20369;-84
2022/05/14 01:37:03;;;;;;;12.82;11.57;;;20.40;99.90;;;;;;5090128;28;20425;-83
2022/05/14 01:39:30;;;;;;;12.27;10.98;;;20.40;99.90;;;;;;5089702;28;21044;-85
2022/05/14 01:42:00;;;;;;;11.48;10.35;;;20.60;99.90;;;;;;5089169;28;20393;-82
2022/05/14 01:44:27;;;;;;;10.52;9.50;;;21.00;99.90;;;;;;5089716;28;20457;-85
2022/05/14 01:46:54;;;;;;;9.63;8.67;;;21.50;99.90;;;;;;5089736;28;20369;-84
2022/05/14 01:49:21;;;;;;;9.57;8.57;;;21.80;99.90;;;;;;5089603;28;20710;-83
2022/05/14 01:51:49;;;;;;;11.30;10.20;;;21.90;99.90;;;;;;5089818;28;20373;-85
2022/05/14 01:54:16;;;;;;;11.23;10.25;;;21.80;99.90;;;;;;5089773;28;20365;-84
2022/05/14 01:56:43;;;;;;;11.50;10.40;;;21.60;99.90;;;;;;5090053;28;20690;-84
2022/05/14 01:59:10;;;;;;;10.77;9.77;;;21.40;99.90;;;;;;5087941;28;20408;-86
2022/05/14 02:01:38;;;;;;;12.10;10.90;;;21.40;99.90;;;;;;5089981;28;20418;-91
2022/05/14 02:04:12;;;;;;;11.13;10.13;;;21.50;99.90;;;;;;5089915;28;20388;-90
2022/05/14 02:06:39;;;;;;;11.13;10.03;;;21.50;99.90;;;;;;5089562;28;20417;-92
2022/05/14 02:09:09;;;;;;;10.98;10.07;;;21.40;99.90;;;;;;5089533;28;20385;-92
2022/05/14 02:11:39;;;;;;;11.00;9.90;;;21.40;99.90;;;;;;5090848;28;20401;-93
2022/05/14 02:14:07;;;;;;;10.27;9.38;;;21.30;99.90;;;;;;5092290;28;20380;-91
2022/05/14 02:16:34;;;;;;;9.10;8.30;;;21.30;99.90;;;;;;5089766;28;20380;-92
2022/05/14 02:19:01;;;;;;;10.18;8.57;;;21.50;99.90;;;;;;5091414;28;20399;-92
2022/05/14 02:21:28;;;;;;;9.18;8.18;;;21.90;99.90;;;;;;5090312;28;20456;-92
2022/05/14 02:23:56;;;;;;;8.55;7.65;;;22.20;99.90;;;;;;5090661;28;20383;-91
2022/05/14 02:26:23;;;;;;;8.70;8.00;;;22.40;99.90;;;;;;5089625;28;20481;-90
2022/05/14 02:28:50;;;;;;;8.75;7.95;;;22.40;99.90;;;;;;5089210;28;20408;-91
2022/05/14 02:31:18;;;;;;;8.80;8.02;;;22.30;99.90;;;;;;5089194;28;20475;-90
2022/05/14 02:33:44;;;;;;;8.60;7.88;;;22.10;99.90;;;;;;5089458;28;20849;-93
2022/05/14 02:36:15;;;;;;;8.55;7.25;;;22.10;99.90;;;;;;5093478;28;20412;-94
2022/05/14 02:38:42;;;;;;;8.10;7.40;;;22.10;99.90;;;;;;5089812;28;20438;-90
2022/05/14 02:41:09;;;;;;;8.07;7.07;;;22.00;99.90;;;;;;5092138;28;20391;-86
2022/05/14 02:43:37;;;;;;;7.45;6.75;;;22.00;99.90;;;;;;5099804;28;20373;-86
2022/05/14 02:46:04;;;;;;;7.90;7.10;;;22.20;99.90;;;;;;5090403;28;20518;-89
2022/05/14 02:48:32;;;;;;;7.32;6.63;;;22.30;99.90;;;;;;5088117;28;20405;-89
2022/05/14 02:50:59;;;;;;;7.40;6.43;;;22.40;99.90;;;;;;5087978;28;20385;-90
2022/05/14 02:53:27;;;;;;;7.95;7.10;;;22.50;99.90;;;;;;5089890;28;20375;-93
2022/05/14 02:55:54;;;;;;;6.80;6.20;;;22.50;99.90;;;;;;5089677;28;20457;-93
2022/05/14 03:01:07;;;;;;;6.40;5.80;;;22.70;99.90;;;;;;5089563;28;20364;-94
2022/05/14 03:03:34;;;;;;;5.70;5.20;;;23.10;99.90;;;;;;5088345;28;20376;-92
2022/05/14 03:06:02;;;;;;;6.45;5.85;;;23.20;99.90;;;;;;5088850;28;20466;-86
2022/05/14 03:08:29;;;;;;;6.45;5.50;;;23.50;99.90;;;;;;5088592;28;20404;-87
2022/05/14 03:10:58;;;;;;;7.03;5.55;;;23.50;99.90;;;;;;5088796;28;20952;-84
2022/05/14 03:13:25;;;;;;;6.57;5.72;;;23.50;99.90;;;;;;5089847;28;20380;-91
2022/05/14 03:15:52;;;;;;;8.13;5.90;;;23.60;99.90;;;;;;5088656;28;20848;-91
2022/05/14 03:18:19;;;;;;;5.70;5.20;;;23.50;99.90;;;;;;5088590;28;20380;-86
2022/05/14 03:20:46;;;;;;;5.90;5.30;;;23.50;99.90;;;;;;5088450;28;20418;-87
2022/05/14 03:23:14;;;;;;;6.83;5.17;;;23.80;99.90;;;;;;5088526;28;20382;-87
2022/05/14 03:25:41;;;;;;;6.00;5.40;;;23.90;99.90;;;;;;5088666;28;20380;-88
2022/05/14 03:28:08;;;;;;;11.27;6.43;;;23.90;99.90;;;;;;5088400;28;20372;-85
2022/05/14 03:30:35;;;;;;;7.90;5.47;;;23.80;99.90;;;;;;5088482;28;20425;-88
2022/05/14 03:33:05;;;;;;;5.35;4.85;;;23.90;99.90;;;;;;5089748;28;20436;-84
2022/05/14 03:35:32;;;;;;;7.90;5.20;;;23.90;99.90;;;;;;5088445;28;20361;-83
2022/05/14 03:37:59;;;;;;;7.85;5.10;;;24.10;99.90;;;;;;5088612;28;20380;-89
2022/05/14 03:40:26;;;;;;;7.20;4.80;;;24.50;99.90;;;;;;5088678;28;20744;-84
2022/05/14 03:42:53;;;;;;;8.73;5.20;;;25.10;99.90;;;;;;5088548;28;20429;-85
2022/05/14 03:45:20;;;;;;;7.78;4.80;;;25.90;99.90;;;;;;5088872;28;20447;-86
2022/05/14 03:47:47;;;;;;;10.77;6.05;;;26.40;99.90;;;;;;5088501;28;20367;-86
2022/05/14 03:50:14;;;;;;;9.52;5.20;;;26.40;99.90;;;;;;5090434;28;20863;-86
2022/05/14 03:52:44;;;;;;;7.28;4.18;;;26.30;99.90;;;;;;5092367;28;20429;-88
2022/05/14 03:55:11;;;;;;;5.85;4.15;;;26.20;99.90;;;;;;5092925;28;20369;-87
2022/05/14 03:57:38;;;;;;;6.07;4.38;;;26.00;99.90;;;;;;5091929;28;20364;-86
2022/05/14 04:00:11;;;;;;;6.35;4.68;;;25.80;99.90;;;;;;5091928;28;20408;-86
2022/05/14 04:02:38;;;;;;;7.88;4.00;;;25.80;99.90;;;;;;5090469;28;20741;-85
2022/05/14 04:05:07;;;;;;;6.25;4.38;;;25.90;99.90;;;;;;5091916;28;20456;-87
2022/05/14 04:07:34;;;;;;;9.55;4.65;;;25.60;99.90;;;;;;5092515;28;20798;-91
2022/05/14 04:10:01;;;;;;;6.40;4.20;;;25.40;99.90;;;;;;5092396;28;20911;-85
2022/05/14 04:12:28;;;;;;;5.38;4.18;;;25.20;99.90;;;;;;5091880;28;20475;-87
2022/05/14 04:14:55;;;;;;;41.38;22.75;;;25.30;99.90;;;;;;5090631;28;20484;-88
2022/05/14 04:17:22;;;;;;;6.85;4.60;;;25.50;99.90;;;;;;5093728;28;20369;-92
2022/05/14 04:19:50;;;;;;;9.25;5.78;;;25.60;99.90;;;;;;5091645;28;20505;-92
2022/05/14 04:22:17;;;;;;;5.00;4.50;;;25.90;99.90;;;;;;5093646;28;20371;-88
2022/05/14 04:24:44;;;;;;;6.47;4.60;;;26.20;99.90;;;;;;5090475;28;20431;-92
2022/05/14 04:27:11;;;;;;;8.40;4.90;;;26.20;99.90;;;;;;5092240;28;20372;-91
2022/05/14 04:29:37;;;;;;;8.60;4.57;;;25.90;99.90;;;;;;5092012;28;20461;-92
2022/05/14 04:32:05;;;;;;;7.07;5.00;;;26.00;99.90;;;;;;5091470;28;20373;-89
2022/05/14 04:34:32;;;;;;;6.32;4.53;;;26.00;99.90;;;;;;5092539;28;20375;-87
2022/05/14 04:36:59;;;;;;;8.50;4.60;;;25.70;99.90;;;;;;5091432;28;20418;-89
2022/05/14 04:39:31;;;;;;;6.15;4.60;;;25.40;99.90;;;;;;5091761;28;20403;-85
2022/05/14 04:42:00;;;;;;;6.40;4.70;;;25.20;99.90;;;;;;5089861;28;20395;-89
2022/05/14 04:44:29;;;;;;;8.43;4.90;;;25.20;99.90;;;;;;5091760;28;20782;-89
2022/05/14 04:46:56;;;;;;;6.03;4.38;;;25.30;99.90;;;;;;5089715;28;20380;-87
2022/05/14 04:49:23;;;;;;;7.30;4.30;;;25.50;99.90;;;;;;5090920;28;20375;-88
2022/05/14 04:51:50;;;;;;;6.60;4.22;;;25.90;99.90;;;;;;5091182;28;20380;-90
2022/05/14 04:54:18;;;;;;;9.07;4.15;;;26.60;99.90;;;;;;5089692;28;20373;-95
2022/05/14 04:56:44;;;;;;;5.15;4.05;;;27.30;99.90;;;;;;5091861;28;20381;-90
2022/05/14 04:59:12;;;;;;;5.20;3.80;;;27.60;99.90;;;;;;5090938;28;20437;-86
2022/05/14 05:03:16;;;;;;;5.30;3.80;;;27.70;99.90;;;;;;5090198;28;20369;-84
2022/05/14 05:04:26;;;;;;;6.20;3.92;;;27.60;99.90;;;;;;5090698;28;20389;-91
2022/05/14 05:06:52;;;;;;;4.30;3.90;;;26.90;99.90;;;;;;5090378;28;20380;-95
2022/05/14 05:09:19;;;;;;;7.03;4.28;;;26.90;99.90;;;;;;5092061;28;20864;-93
2022/05/14 05:11:46;;;;;;;5.25;3.75;;;27.40;99.90;;;;;;5091358;28;20368;-89
2022/05/14 05:14:14;;;;;;;5.65;3.63;;;27.50;99.90;;;;;;5090725;28;20467;-92
2022/05/14 05:16:41;;;;;;;3.80;3.40;;;26.90;99.90;;;;;;5091922;28;20744;-85
2022/05/14 05:19:08;;;;;;;4.78;3.50;;;26.70;99.90;;;;;;5090187;28;20401;-85
2022/05/14 05:21:35;;;;;;;4.55;2.75;;;26.50;99.90;;;;;;5090287;28;20390;-86
2022/05/14 05:24:05;;;;;;;3.00;2.60;;;26.60;99.90;;;;;;5089964;28;20383;-91
2022/05/14 05:26:33;;;;;;;3.23;2.63;;;26.70;99.90;;;;;;5090329;28;20376;-84
2022/05/14 05:29:04;;;;;;;3.22;2.10;;;27.00;99.90;;;;;;5090169;28;20740;-85
2022/05/14 05:31:32;;;;;;;4.03;2.47;;;27.10;99.90;;;;;;5090141;28;20393;-88
2022/05/14 05:34:00;;;;;;;2.55;1.80;;;27.20;99.90;;;;;;5090044;28;20376;-84
2022/05/14 05:36:27;;;;;;;3.30;2.00;;;27.00;99.90;;;;;;5089965;28;20916;-85
2022/05/14 05:38:54;;;;;;;3.65;1.88;;;26.70;99.90;;;;;;5089815;28;20396;-88
2022/05/14 05:41:22;;;;;;;3.80;1.90;;;26.50;99.90;;;;;;5088916;28;20443;-84
2022/05/14 05:43:49;;;;;;;2.90;1.77;;;26.30;99.90;;;;;;5090115;28;20468;-85
2022/05/14 05:46:16;;;;;;;3.40;1.77;;;26.20;99.90;;;;;;5090176;28;20875;-87
2022/05/14 05:48:44;;;;;;;5.93;2.63;;;26.00;99.90;;;;;;5088544;28;20380;-88
2022/05/14 05:51:11;;;;;;;2.65;1.90;;;25.80;99.90;;;;;;5089796;28;20423;-88
2022/05/14 05:59:09;;;;;;;4.32;2.30;;;25.60;99.90;;;;;;5089976;28;20456;-89
2022/05/14 06:01:36;;;;;;;2.33;1.80;;;25.50;99.90;;;;;;5090264;28;20372;-85
2022/05/14 06:04:04;;;;;;;3.80;1.75;;;25.30;99.90;;;;;;5089490;28;20364;-87
2022/05/14 06:06:31;;;;;;;2.13;1.70;;;25.30;99.90;;;;;;5089500;28;20365;-85
2022/05/14 06:09:00;;;;;;;2.25;1.60;;;25.20;99.90;;;;;;5089167;28;20372;-85
2022/05/14 06:11:29;;;;;;;4.22;2.33;;;25.10;99.90;;;;;;5089157;28;20836;-85
2022/05/14 06:13:56;;;;;;;5.03;4.00;;;25.20;99.90;;;;;;5088798;28;20404;-88
2022/05/14 06:16:23;;;;;;;5.13;4.17;;;25.00;99.90;;;;;;5089000;28;20860;-82
2022/05/14 06:18:50;;;;;;;4.53;3.93;;;24.70;99.90;;;;;;5088898;28;20445;-85
2022/05/14 06:21:17;;;;;;;5.00;4.50;;;24.50;99.90;;;;;;5089138;28;20372;-86
2022/05/14 06:23:44;;;;;;;5.97;4.80;;;24.40;99.90;;;;;;5088996;28;20404;-84
2022/05/14 06:26:11;;;;;;;6.00;4.63;;;24.20;99.90;;;;;;5088958;28;20503;-84
2022/05/14 06:28:38;;;;;;;5.20;4.70;;;24.00;99.90;;;;;;5088843;28;20393;-84
2022/05/14 06:31:06;;;;;;;4.82;4.32;;;23.90;99.90;;;;;;5088673;28;20879;-85
2022/05/14 06:33:33;;;;;;;5.43;4.87;;;23.80;99.90;;;;;;5088851;28;20376;-85
2022/05/14 06:36:00;;;;;;;9.13;5.70;;;23.70;99.90;;;;;;5088908;28;20375;-84
2022/05/14 06:38:27;;;;;;;6.30;5.70;;;23.60;99.90;;;;;;5088921;28;20388;-85
2022/05/14 06:40:54;;;;;;;8.13;5.73;;;23.60;99.90;;;;;;5089167;28;20455;-85
2022/05/14 06:43:22;;;;;;;7.20;6.20;;;23.50;99.90;;;;;;5091374;28;20368;-84
2022/05/14 06:45:49;;;;;;;7.00;6.30;;;23.40;99.90;;;;;;5090159;28;20384;-87
2022/05/14 06:48:16;;;;;;;6.95;6.18;;;23.20;99.90;;;;;;5089033;28;20387;-86
2022/05/14 06:50:47;;;;;;;7.15;6.40;;;23.00;99.90;;;;;;5088664;28;20871;-86
2022/05/14 06:53:18;;;;;;;8.25;6.10;;;22.90;99.90;;;;;;5088865;28;20382;-86
2022/05/14 06:55:48;;;;;;;6.73;6.10;;;22.80;99.90;;;;;;5089010;28;20372;-83
2022/05/14 06:58:21;;;;;;;9.23;7.00;;;22.70;99.90;;;;;;5088650;28;20393;-84
2022/05/14 07:00:48;;;;;;;9.13;7.03;;;22.60;99.90;;;;;;5088532;28;20417;-86
2022/05/14 07:08:45;;;;;;;10.13;7.18;;;22.30;99.90;;;;;;5088833;28;20419;-84
2022/05/14 07:11:13;;;;;;;10.32;7.50;;;22.30;99.90;;;;;;5088360;28;20407;-85
2022/05/14 07:13:40;;;;;;;8.43;7.63;;;22.30;99.90;;;;;;5088481;28;20392;-87
2022/05/14 07:16:07;;;;;;;9.00;7.40;;;22.10;99.90;;;;;;5089322;28;20396;-84
2022/05/14 07:18:35;;;;;;;8.60;7.70;;;22.10;99.90;;;;;;5088419;28;20400;-85
2022/05/14 07:21:02;;;;;;;10.73;7.83;;;22.00;99.90;;;;;;5088455;28;20448;-86
2022/05/14 07:23:29;;;;;;;11.23;9.63;;;21.90;99.90;;;;;;5088589;28;20377;-87
2022/05/14 07:26:06;;;;;;;14.30;12.73;;;21.80;99.90;;;;;;5092843;28;20368;-86
2022/05/14 07:28:35;;;;;;;10.63;9.57;;;21.70;99.90;;;;;;5094727;28;20518;-91
2022/05/14 07:31:03;;;;;;;10.80;9.70;;;21.50;99.90;;;;;;5092647;28;20864;-85
2022/05/14 07:33:31;;;;;;;9.45;8.55;;;21.40;99.90;;;;;;5092486;28;20372;-87
2022/05/14 07:36:05;;;;;;;13.10;9.43;;;21.40;99.90;;;;;;5094133;28;21027;-84
2022/05/14 07:38:35;;;;;;;10.38;9.30;;;21.30;99.90;;;;;;5094265;28;20437;-90
2022/05/14 07:41:04;;;;;;;11.98;10.77;;;21.20;99.90;;;;;;5099211;28;20370;-88
2022/05/14 07:43:35;;;;;;;12.40;9.93;;;21.10;99.90;;;;;;5093914;28;20486;-87
2022/05/14 07:46:11;;;;;;;14.40;11.18;;;21.10;99.90;;;;;;5093150;28;20443;-87
2022/05/14 07:48:42;;;;;;;13.37;11.20;;;21.10;99.90;;;;;;5093932;28;20377;-92
2022/05/14 07:51:11;;;;;;;12.65;10.55;;;21.00;99.90;;;;;;5094826;28;20731;-90
2022/05/14 07:53:39;;;;;;;12.88;10.48;;;21.00;99.90;;;;;;5093050;28;20379;-92
2022/05/14 07:56:08;;;;;;;11.77;10.30;;;21.00;99.90;;;;;;5092113;28;20459;-89
2022/05/14 07:58:37;;;;;;;11.82;10.55;;;21.00;99.90;;;;;;5092067;28;20491;-87
2022/05/14 08:01:05;;;;;;;12.40;11.10;;;21.00;99.90;;;;;;5091904;28;20368;-85
2022/05/14 08:03:32;;;;;;;14.20;11.70;;;21.00;99.90;;;;;;5091873;28;20376;-85
2022/05/14 08:06:00;;;;;;;13.07;11.35;;;20.90;99.90;;;;;;5093778;28;20371;-86
2022/05/14 08:08:27;;;;;;;13.13;11.73;;;20.90;99.90;;;;;;5091332;28;20388;-86
2022/05/14 08:10:56;;;;;;;12.57;11.27;;;20.90;99.90;;;;;;5091764;28;20752;-84
2022/05/14 08:13:24;;;;;;;13.80;11.80;;;20.80;99.90;;;;;;5091753;28;20952;-85
2022/05/14 08:15:53;;;;;;;13.90;12.15;;;20.80;99.90;;;;;;5091978;28;20377;-85
2022/05/14 08:18:21;;;;;;;14.88;12.15;;;20.70;99.90;;;;;;5073206;28;20412;-85
2022/05/14 08:20:50;;;;;;;14.02;11.73;;;20.70;99.90;;;;;;5090628;28;20512;-86
2022/05/14 08:26:04;;;;;;;18.00;14.83;;;20.60;99.90;;;;;;5092693;28;20367;-85
2022/05/14 08:28:31;;;;;;;15.15;13.63;;;20.50;99.90;;;;;;5091399;28;20373;-85
2022/05/14 08:31:00;;;;;;;17.23;14.80;;;20.40;99.90;;;;;;5091479;28;20393;-86
2022/05/14 08:33:28;;;;;;;15.38;13.68;;;20.30;99.90;;;;;;5091434;28;20754;-87
2022/05/14 08:35:56;;;;;;;17.45;15.23;;;20.20;99.90;;;;;;5091695;28;20897;-85
2022/05/14 08:38:23;;;;;;;16.20;14.40;;;20.30;99.90;;;;;;5091909;28;20400;-88
2022/05/14 08:41:01;;;;;;;14.30;12.80;;;20.20;99.90;;;;;;5092137;28;20369;-86
2022/05/14 08:43:33;;;;;;;18.08;14.70;;;20.20;99.90;;;;;;5091823;28;20716;-86
2022/05/14 08:46:00;;;;;;;17.30;14.50;;;20.20;99.90;;;;;;5091761;28;20372;-85
2022/05/14 08:48:36;;;;;;;20.17;15.32;;;20.10;99.90;;;;;;5093040;28;20376;-85
2022/05/14 08:51:11;;;;;;;19.67;16.35;;;20.10;99.90;;;;;;5091265;28;20449;-86
2022/05/14 08:53:39;;;;;;;18.38;16.05;;;20.10;99.90;;;;;;5092370;28;20510;-86
2022/05/14 08:56:29;;;;;;;16.25;14.55;;;20.10;99.90;;;;;;5091738;28;20371;-86
2022/05/14 08:58:57;;;;;;;18.98;15.88;;;20.00;99.90;;;;;;5086398;28;20404;-87
2022/05/14 09:01:28;;;;;;;20.33;17.10;;;20.00;99.90;;;;;;5092351;28;20368;-88
2022/05/14 09:03:55;;;;;;;20.52;17.77;;;19.90;99.90;;;;;;5091151;28;20372;-87
2022/05/14 09:06:23;;;;;;;25.25;17.55;;;19.80;99.90;;;;;;5091209;28;20430;-86
2022/05/14 09:08:50;;;;;;;19.10;16.40;;;19.80;99.90;;;;;;5091049;28;20379;-85
2022/05/14 09:11:36;;;;;;;20.63;16.45;;;19.80;99.90;;;;;;5091180;28;20391;-85
2022/05/14 09:14:17;;;;;;;19.52;15.50;;;19.70;99.90;;;;;;5090714;28;20439;-88
2022/05/14 09:16:45;;;;;;;19.38;15.88;;;19.60;99.90;;;;;;5090799;28;20452;-88
2022/05/14 09:19:18;;;;;;;20.90;16.60;;;19.60;99.90;;;;;;5090804;28;20428;-87
2022/05/14 09:21:57;;;;;;;27.90;19.27;;;19.50;99.90;;;;;;5091060;28;20372;-87
2022/05/14 09:24:28;;;;;;;20.75;16.75;;;19.50;99.90;;;;;;5091103;28;20454;-88
2022/05/14 09:27:09;;;;;;;17.25;15.27;;;19.50;99.90;;;;;;5090737;28;20364;-87
2022/05/14 09:29:42;;;;;;;18.90;16.27;;;19.40;99.90;;;;;;5090865;28;20471;-87
2022/05/14 09:32:20;;;;;;;19.77;16.42;;;19.40;99.90;;;;;;5095482;28;20423;-87
2022/05/14 09:34:48;;;;;;;17.92;15.23;;;19.40;99.90;;;;;;5091518;28;20379;-87
2022/05/14 09:37:20;;;;;;;19.30;14.57;;;19.40;99.90;;;;;;5091693;28;20373;-84
2022/05/14 09:40:09;;;;;;;17.27;13.65;;;19.40;99.90;;;;;;5091603;28;20495;-85
2022/05/14 09:42:42;;;;;;;18.58;13.60;;;19.40;99.90;;;;;;5090271;28;20361;-83
2022/05/14 09:45:34;;;;;;;20.33;14.35;;;19.50;99.90;;;;;;5091265;28;20379;-86
2022/05/14 09:48:14;;;;;;;19.50;16.17;;;19.50;99.90;;;;;;5048102;28;20376;-86
2022/05/14 09:50:44;;;;;;;23.83;20.17;;;19.50;99.90;;;;;;5049140;28;20368;-86
2022/05/14 09:53:11;;;;;;;23.17;19.77;;;19.50;99.90;;;;;;5047952;28;20788;-86
2022/05/14 09:55:51;;;;;;;25.90;21.13;;;19.50;99.90;;;;;;5047664;28;20465;-86
2022/05/14 09:58:33;;;;;;;27.08;21.00;;;19.50;99.90;;;;;;5031424;28;20471;-85
2022/05/14 10:01:28;;;;;;;22.33;19.05;;;19.40;99.90;;;;;;5047711;28;20465;-84
2022/05/14 10:04:29;;;;;;;20.98;17.98;;;19.40;99.90;;;;;;5047399;28;20474;-83
2022/05/14 10:07:10;;;;;;;29.75;24.15;;;19.30;99.90;;;;;;5030496;28;20386;-84
2022/05/14 10:10:04;;;;;;;26.17;22.25;;;19.30;99.90;;;;;;5047247;28;20368;-85
2022/05/14 10:13:00;;;;;;;25.92;21.58;;;19.20;99.90;;;;;;5047505;28;20467;-88
2022/05/14 10:15:51;;;;;;;29.85;23.27;;;19.20;99.90;;;;;;4988391;28;20456;-85
2022/05/14 10:18:33;;;;;;;24.83;20.98;;;19.10;99.90;;;;;;4987902;28;20412;-86
2022/05/14 10:21:28;;;;;;;30.20;23.88;;;19.10;99.90;;;;;;4988490;28;20468;-87
2022/05/14 10:27:21;;;;;;;27.10;23.60;;;19.10;99.90;;;;;;4968916;28;20574;-88
2022/05/14 10:29:56;;;;;;;32.47;26.58;;;19.00;99.90;;;;;;4968208;28;20489;-87
2022/05/14 10:32:27;;;;;;;37.17;27.48;;;19.10;99.90;;;;;;4968873;28;20475;-87
2022/05/14 10:34:58;;;;;;;34.58;26.40;;;19.10;99.90;;;;;;4968328;28;20404;-86
2022/05/14 10:38:00;;;;;;;34.35;26.20;;;19.10;99.90;;;;;;4968197;28;20515;-86
2022/05/14 10:40:40;;;;;;;35.13;26.67;;;19.20;99.90;;;;;;4930080;29;20402;-85
2022/05/14 10:43:36;;;;;;;35.13;28.33;;;19.10;99.90;;;;;;4929665;29;20851;-85
2022/05/14 10:46:09;;;;;;;44.45;30.98;;;19.10;99.90;;;;;;4929651;29;20539;-85
2022/05/14 10:49:00;;;;;;;43.38;30.55;;;19.10;99.90;;;;;;4929603;29;20452;-85
2022/05/14 10:51:33;;;;;;;46.83;30.77;;;19.10;99.90;;;;;;4935241;28;20389;-86
2022/05/14 10:54:02;;;;;;;45.60;32.22;;;19.00;99.90;;;;;;4968599;28;20449;-84
2022/05/14 10:56:37;;;;;;;41.58;31.15;;;19.00;99.90;;;;;;4968044;28;20396;-84
2022/05/14 10:59:09;;;;;;;38.90;29.92;;;18.90;99.90;;;;;;4966847;28;20467;-87
2022/05/14 11:01:54;;;;;;;44.13;30.75;;;18.80;99.90;;;;;;4969223;28;20389;-85
2022/05/14 11:04:26;;;;;;;42.53;30.23;;;18.80;99.90;;;;;;5045398;28;20422;-85
2022/05/14 11:07:09;;;;;;;40.40;30.48;;;18.70;99.90;;;;;;5046830;28;20380;-85
2022/05/14 11:09:45;;;;;;;47.90;32.30;;;18.60;99.90;;;;;;5046582;28;20388;-84
2022/05/14 11:12:21;;;;;;;46.40;31.45;;;18.60;99.90;;;;;;5046649;28;20372;-85
2022/05/14 11:14:50;;;;;;;50.55;34.60;;;18.50;99.90;;;;;;5049357;28;20368;-85
2022/05/14 11:17:23;;;;;;;46.00;31.40;;;18.50;99.90;;;;;;5091092;28;20368;-87
2022/05/14 11:20:08;;;;;;;49.70;33.95;;;18.50;99.90;;;;;;5092456;28;20461;-85
2022/05/14 11:22:48;;;;;;;47.88;33.47;;;18.40;99.90;;;;;;5089956;28;20357;-86
2022/05/14 11:25:20;;;;;;;46.83;32.35;;;18.50;99.90;;;;;;5090837;28;20368;-86
2022/05/14 11:28:04;;;;;;;50.23;34.77;;;18.40;99.90;;;;;;5092322;28;20411;-85
2022/05/14 11:30:42;;;;;;;48.85;34.13;;;18.30;99.90;;;;;;5091403;28;20405;-84
2022/05/14 11:33:31;;;;;;;53.63;34.05;;;18.30;99.90;;;;;;5093664;28;20383;-85
2022/05/14 11:36:24;;;;;;;41.80;30.15;;;18.30;99.90;;;;;;5093131;28;20360;-83
2022/05/14 11:39:23;;;;;;;53.75;34.63;;;18.20;99.90;;;;;;5035545;28;20399;-84
2022/05/14 11:42:07;;;;;;;55.42;36.22;;;18.20;99.90;;;;;;5048643;28;20401;-84
2022/05/14 11:44:42;;;;;;;55.83;37.30;;;18.30;99.90;;;;;;5052804;28;20404;-87
2022/05/14 11:47:29;;;;;;;57.15;37.05;;;18.20;99.90;;;;;;5050893;28;20878;-84
2022/05/14 11:49:58;;;;;;;54.25;35.17;;;18.20;99.90;;;;;;5050935;28;20418;-85
2022/05/14 11:52:45;;;;;;;51.75;34.83;;;18.20;99.90;;;;;;5050162;28;20372;-83
2022/05/14 11:55:34;;;;;;;58.87;35.93;;;18.20;99.90;;;;;;5050613;28;20360;-86
2022/05/14 11:58:01;;;;;;;55.50;35.50;;;18.10;99.90;;;;;;5048765;28;20947;-84
2022/05/14 12:00:33;;;;;;;55.28;34.15;;;18.10;99.90;;;;;;5049944;28;20395;-84
2022/05/14 12:03:10;;;;;;;46.90;31.60;;;18.00;99.90;;;;;;5050817;28;20368;-84
2022/05/14 12:06:03;;;;;;;52.25;34.67;;;17.90;99.90;;;;;;5050595;28;20451;-83
2022/05/14 12:08:36;;;;;;;50.53;35.53;;;17.90;99.90;;;;;;5048313;28;20387;-84
2022/05/14 12:11:12;;;;;;;65.83;40.83;;;17.90;99.90;;;;;;5050620;28;20881;-85
2022/05/14 12:14:11;;;;;;;74.87;43.80;;;17.90;99.90;;;;;;5051077;28;20376;-85
2022/05/14 12:16:43;;;;;;;68.37;40.90;;;18.00;99.90;;;;;;5037772;28;20390;-85
2022/05/14 12:19:20;;;;;;;69.63;39.88;;;18.00;99.90;;;;;;5050425;28;20407;-85
2022/05/14 12:22:07;;;;;;;66.40;39.40;;;17.90;99.90;;;;;;5049860;28;20458;-83
2022/05/14 12:24:37;;;;;;;56.10;35.17;;;17.90;99.90;;;;;;5049738;28;20376;-84
2022/05/14 12:27:15;;;;;;;61.75;39.72;;;17.80;99.90;;;;;;5049729;28;20395;-84
2022/05/14 12:30:05;;;;;;;53.33;35.17;;;17.80;99.90;;;;;;5049269;28;20392;-84
2022/05/14 12:35:24;;;;;;;69.97;40.90;;;17.70;99.90;;;;;;5049721;28;20359;-84
2022/05/14 12:37:56;;;;;;;100.18;54.97;;;17.60;99.90;;;;;;5050986;28;20372;-84
2022/05/14 12:40:38;;;;;;;74.43;45.88;;;17.80;99.90;;;;;;5051192;28;20391;-83
2022/05/14 12:43:14;;;;;;;77.72;44.28;;;17.80;99.90;;;;;;5049414;28;20376;-85
2022/05/14 12:45:45;;;;;;;66.55;40.78;;;17.70;99.90;;;;;;5049598;28;20396;-83
2022/05/14 12:48:14;;;;;;;71.90;42.50;;;17.60;99.90;;;;;;5049567;28;20388;-85
2022/05/14 12:50:52;;;;;;;60.30;38.40;;;17.50;99.90;;;;;;5049159;28;20387;-87
2022/05/14 12:53:19;;;;;;;66.68;40.60;;;17.50;99.90;;;;;;5069161;28;20377;-86
2022/05/14 12:55:51;;;;;;;63.50;40.73;;;17.40;99.90;;;;;;5094958;28;20378;-85
2022/05/14 12:58:19;;;;;;;79.65;48.33;;;17.40;99.90;;;;;;5093566;28;20396;-84
2022/05/14 13:00:50;;;;;;;79.05;46.00;;;17.50;99.90;;;;;;5096026;28;20387;-85
2022/05/14 13:03:32;;;;;;;70.88;41.80;;;17.50;99.90;;;;;;5099991;28;20384;-84
2022/05/14 13:06:22;;;;;;;75.10;43.72;;;17.40;99.90;;;;;;5098118;28;20724;-86
2022/05/14 13:08:53;;;;;;;61.85;38.45;;;17.40;99.90;;;;;;5098471;28;20800;-84
2022/05/14 13:11:24;;;;;;;73.13;44.25;;;17.40;99.90;;;;;;5098941;28;20437;-83
2022/05/14 13:13:54;;;;;;;84.43;46.78;;;17.30;99.90;;;;;;5092758;28;20371;-83
2022/05/14 13:16:31;;;;;;;70.13;43.70;;;17.40;99.90;;;;;;5091441;28;20390;-82
2022/05/14 13:19:45;;;;;;;71.07;43.73;;;17.40;99.90;;;;;;5090598;28;20392;-85
2022/05/14 13:22:52;;;;;;;84.83;47.37;;;17.40;99.90;;;;;;5047637;28;20372;-86
2022/05/14 13:25:30;;;;;;;84.18;47.63;;;17.40;99.90;;;;;;4969760;28;20449;-84
2022/05/14 13:28:13;;;;;;;78.43;46.78;;;17.40;99.90;;;;;;4969473;28;20414;-87